createdAt,value
2022-08-23T00:01:36.361Z,4.60
2022-08-23T00:04:34.790Z,5.30
2022-08-23T00:07:28.188Z,5.00
2022-08-23T00:10:21.392Z,5.10
2022-08-23T00:13:12.750Z,4.80
2022-08-23T00:16:04.206Z,5.00
2022-08-23T00:18:56.904Z,5.00
2022-08-23T00:21:48.562Z,4.57
2022-08-23T00:24:41.022Z,5.20
2022-08-23T00:27:33.552Z,4.90
2022-08-23T00:30:25.691Z,5.10
2022-08-23T00:33:16.909Z,4.50
2022-08-23T00:36:09.726Z,4.70
2022-08-23T00:39:01.389Z,5.20
2022-08-23T00:41:53.145Z,4.93
2022-08-23T00:45:02.411Z,5.03
2022-08-23T00:47:54.651Z,4.70
2022-08-23T00:50:50.481Z,4.73
2022-08-23T00:53:45.173Z,4.67
2022-08-23T00:56:36.897Z,5.10
2022-08-23T00:59:29.049Z,4.80
2022-08-23T01:02:20.672Z,4.97
2022-08-23T01:05:12.027Z,5.10
2022-08-23T01:08:04.637Z,5.27
2022-08-23T01:11:00.403Z,5.27
2022-08-23T01:13:56.987Z,4.83
2022-08-23T01:16:50.509Z,4.70
2022-08-23T01:19:45.089Z,4.73
2022-08-23T01:22:41.430Z,4.23
2022-08-23T01:25:34.814Z,4.30
2022-08-23T01:28:26.615Z,3.93
2022-08-23T01:31:18.662Z,4.37
2022-08-23T01:34:11.318Z,4.50
2022-08-23T01:37:02.776Z,3.90
2022-08-23T01:39:55.328Z,3.87
2022-08-23T01:42:49.466Z,3.83
2022-08-23T01:45:41.294Z,3.97
2022-08-23T01:48:32.346Z,3.80
2022-08-23T01:51:24.126Z,3.80
2022-08-23T01:54:15.563Z,4.07
2022-08-23T01:57:06.959Z,3.57
2022-08-23T01:59:59.800Z,3.53
2022-08-23T02:02:51.300Z,3.70
2022-08-23T02:05:43.370Z,3.83
2022-08-23T02:08:52.223Z,3.80
2022-08-23T02:11:44.538Z,4.20
2022-08-23T02:14:37.236Z,4.03
2022-08-23T02:17:33.625Z,3.50
2022-08-23T02:20:24.836Z,3.50
2022-08-23T02:23:16.220Z,4.17
2022-08-23T02:26:07.626Z,3.43
2022-08-23T02:28:58.992Z,3.83
2022-08-23T02:31:52.208Z,3.40
2022-08-23T02:34:59.806Z,4.00
2022-08-23T02:37:57.278Z,3.73
2022-08-23T02:40:52.789Z,3.60
2022-08-23T02:43:52.197Z,4.00
2022-08-23T02:46:45.820Z,3.57
2022-08-23T02:49:38.165Z,3.60
2022-08-23T02:52:31.112Z,3.80
2022-08-23T02:55:22.365Z,4.37
2022-08-23T02:58:15.990Z,4.27
2022-08-23T03:01:07.628Z,4.30
2022-08-23T03:04:00.263Z,4.40
2022-08-23T03:06:51.473Z,3.90
2022-08-23T03:09:44.089Z,4.37
2022-08-23T03:12:36.999Z,4.20
2022-08-23T03:15:28.496Z,4.40
2022-08-23T03:18:19.728Z,4.20
2022-08-23T03:21:11.003Z,4.40
2022-08-23T03:24:05.711Z,4.77
2022-08-23T03:27:00.965Z,4.67
2022-08-23T03:29:52.145Z,4.87
2022-08-23T03:32:48.783Z,4.83
2022-08-23T03:35:40.446Z,4.70
2022-08-23T03:38:31.576Z,4.70
2022-08-23T03:41:22.703Z,4.27
2022-08-23T03:44:15.479Z,4.47
2022-08-23T03:47:07.168Z,5.10
2022-08-23T03:49:58.635Z,5.30
2022-08-23T03:52:49.848Z,4.47
2022-08-23T03:55:42.591Z,5.43
2022-08-23T03:58:34.364Z,4.97
2022-08-23T04:01:28.727Z,5.20
2022-08-23T04:04:20.203Z,4.70
2022-08-23T04:07:11.280Z,4.97
2022-08-23T04:10:02.354Z,5.73
2022-08-23T04:12:55.062Z,5.23
2022-08-23T04:15:46.331Z,5.20
2022-08-23T04:18:39.061Z,5.03
2022-08-23T04:21:30.286Z,5.13
2022-08-23T04:24:21.577Z,5.27
2022-08-23T04:27:13.175Z,5.10
2022-08-23T04:30:05.230Z,5.20
2022-08-23T04:32:59.569Z,5.83
2022-08-23T04:35:54.398Z,5.63
2022-08-23T04:38:45.907Z,5.13
2022-08-23T04:41:54.499Z,5.57
2022-08-23T04:44:45.586Z,5.30
2022-08-23T04:47:40.381Z,5.40
2022-08-23T04:50:31.854Z,5.30
2022-08-23T04:53:24.351Z,5.03
2022-08-23T04:56:15.838Z,5.07
2022-08-23T04:59:07.267Z,5.17
2022-08-23T05:01:58.726Z,4.90
2022-08-23T05:04:52.883Z,5.00
2022-08-23T05:07:44.175Z,5.40
2022-08-23T05:10:36.790Z,5.07
2022-08-23T05:13:28.046Z,5.40
2022-08-23T05:16:19.505Z,5.93
2022-08-23T05:19:11.042Z,5.73
2022-08-23T05:22:02.510Z,5.73
2022-08-23T05:24:53.714Z,6.00
2022-08-23T05:27:46.502Z,5.73
2022-08-23T05:30:38.195Z,5.27
2022-08-23T05:33:29.452Z,5.60
2022-08-23T05:36:21.593Z,5.77
2022-08-23T05:39:14.949Z,6.23
2022-08-23T05:42:17.595Z,5.43
2022-08-23T05:45:10.931Z,5.43
2022-08-23T05:48:03.741Z,5.80
2022-08-23T05:50:57.754Z,6.20
2022-08-23T05:53:50.388Z,5.67
2022-08-23T05:56:42.575Z,5.27
2022-08-23T05:59:36.625Z,5.03
2022-08-23T06:02:29.311Z,5.70
2022-08-23T06:05:21.163Z,5.53
2022-08-23T06:08:12.860Z,5.53
2022-08-23T06:11:04.794Z,6.13
2022-08-23T06:13:57.241Z,5.80
2022-08-23T06:16:52.554Z,5.67
2022-08-23T06:19:47.551Z,5.97
2022-08-23T06:22:38.763Z,5.47
2022-08-23T06:25:30.390Z,5.90
2022-08-23T06:28:25.565Z,5.50
2022-08-23T06:31:37.637Z,5.73
2022-08-23T06:34:32.380Z,5.10
2022-08-23T06:37:25.792Z,5.43
2022-08-23T06:40:17.979Z,5.43
2022-08-23T06:43:09.670Z,5.67
2022-08-23T06:46:08.010Z,5.40
2022-08-23T06:49:00.866Z,5.80
2022-08-23T06:51:53.165Z,4.60
2022-08-23T06:54:47.193Z,5.60
2022-08-23T06:57:38.425Z,5.30
2022-08-23T07:00:29.711Z,5.43
2022-08-23T07:03:20.972Z,4.47
2022-08-23T07:06:12.448Z,11.03
2022-08-23T07:09:03.643Z,10.70
2022-08-23T07:11:56.320Z,4.80
2022-08-23T07:14:47.991Z,4.40
2022-08-23T07:17:39.767Z,5.07
2022-08-23T07:20:30.986Z,4.60
2022-08-23T07:23:22.498Z,4.80
2022-08-23T07:26:15.402Z,4.77
2022-08-23T07:29:08.959Z,4.47
2022-08-23T07:32:00.646Z,4.40
2022-08-23T07:34:52.148Z,3.97
2022-08-23T07:37:43.383Z,4.00
2022-08-23T07:40:39.016Z,3.87
2022-08-23T07:43:34.293Z,4.10
2022-08-23T07:46:27.084Z,4.10
2022-08-23T07:49:18.214Z,4.17
2022-08-23T07:52:12.011Z,4.20
2022-08-23T07:55:03.645Z,4.13
2022-08-23T07:57:54.786Z,4.03
2022-08-23T08:00:48.764Z,3.93
2022-08-23T08:03:41.311Z,3.60
2022-08-23T08:06:35.135Z,4.30
2022-08-23T08:09:26.533Z,5.10
2022-08-23T08:12:17.915Z,3.37
2022-08-23T08:15:10.147Z,3.80
2022-08-23T08:18:02.176Z,3.47
2022-08-23T08:20:58.025Z,4.10
2022-08-23T08:23:48.934Z,3.97
2022-08-23T08:26:40.859Z,4.10
2022-08-23T08:29:32.561Z,4.40
2022-08-23T08:32:24.008Z,3.50
2022-08-23T08:35:15.834Z,3.57
2022-08-23T08:38:08.345Z,3.47
2022-08-23T08:41:02.836Z,6.63
2022-08-23T08:43:59.246Z,4.17
2022-08-23T08:46:51.778Z,4.10
2022-08-23T08:49:45.373Z,4.27
2022-08-23T08:52:38.378Z,3.00
2022-08-23T08:55:32.152Z,3.00
2022-08-23T08:58:27.981Z,3.13
2022-08-23T09:01:20.001Z,3.00
2022-08-23T09:04:11.838Z,3.67
2022-08-23T09:07:15.138Z,3.30
2022-08-23T09:10:11.042Z,2.97
2022-08-23T09:13:11.451Z,2.60
2022-08-23T09:16:05.251Z,3.57
2022-08-23T09:18:56.623Z,3.30
2022-08-23T09:21:49.605Z,3.13
2022-08-23T09:24:41.176Z,2.70
2022-08-23T09:27:32.943Z,3.17
2022-08-23T09:30:45.176Z,3.00
2022-08-23T09:33:39.624Z,5.53
2022-08-23T09:36:34.075Z,4.90
2022-08-23T09:39:30.364Z,3.33
2022-08-23T09:42:30.019Z,2.80
2022-08-23T09:45:35.205Z,2.70
2022-08-23T09:48:34.469Z,3.17
2022-08-23T09:51:27.770Z,2.90
2022-08-23T09:54:20.068Z,3.30
2022-08-23T09:57:13.744Z,3.40
2022-08-23T10:00:20.033Z,3.30
2022-08-23T10:03:23.573Z,3.53
2022-08-23T10:06:16.165Z,3.40
2022-08-23T10:09:08.701Z,3.63
2022-08-23T10:12:00.788Z,3.77
2022-08-23T10:14:54.825Z,4.10
2022-08-23T10:17:52.783Z,3.60
2022-08-23T10:20:49.577Z,3.93
2022-08-23T10:23:45.563Z,3.47
2022-08-23T10:26:40.365Z,3.77
2022-08-23T10:29:41.208Z,3.73
2022-08-23T10:32:38.717Z,3.60
2022-08-23T10:35:36.455Z,3.43
2022-08-23T10:38:38.725Z,3.73
2022-08-23T10:41:44.008Z,4.23
2022-08-23T10:44:36.351Z,5.23
2022-08-23T10:47:31.862Z,4.47
2022-08-23T10:50:23.429Z,3.37
2022-08-23T10:53:17.056Z,3.10
2022-08-23T10:56:13.567Z,3.20
2022-08-23T10:59:08.721Z,3.50
2022-08-23T11:02:01.607Z,3.33
2022-08-23T11:04:55.591Z,3.50
2022-08-23T11:07:58.250Z,3.00
2022-08-23T11:10:53.842Z,3.57
2022-08-23T11:13:53.963Z,2.80
2022-08-23T11:16:47.164Z,2.57
2022-08-23T11:19:49.292Z,2.80
2022-08-23T11:22:55.406Z,2.60
2022-08-23T11:25:47.064Z,2.50
2022-08-23T11:28:42.672Z,2.33
2022-08-23T11:31:37.333Z,2.53
2022-08-23T11:34:31.780Z,3.10
2022-08-23T11:37:31.172Z,2.73
2022-08-23T11:40:43.548Z,2.67
2022-08-23T11:43:36.950Z,2.70
2022-08-23T11:46:31.586Z,2.77
2022-08-23T11:49:41.930Z,2.97
2022-08-23T11:52:38.673Z,3.25
2022-08-23T11:55:42.291Z,3.05
2022-08-23T11:58:45.921Z,2.67
2022-08-23T12:01:38.968Z,2.80
2022-08-23T12:04:34.289Z,3.38
2022-08-23T12:07:40.953Z,2.72
2022-08-23T12:10:47.349Z,2.65
2022-08-23T12:13:54.568Z,3.30
2022-08-23T12:16:49.826Z,2.83
2022-08-23T12:19:46.008Z,2.50
2022-08-23T12:22:54.991Z,2.45
2022-08-23T12:25:46.458Z,2.53
2022-08-23T12:28:43.521Z,2.38
2022-08-23T12:31:40.646Z,2.63
2022-08-23T12:34:35.068Z,2.97
2022-08-23T12:37:31.137Z,2.90
2022-08-23T12:40:24.303Z,2.13
2022-08-23T12:43:22.406Z,2.40
2022-08-23T12:46:29.303Z,2.15
2022-08-23T12:49:28.032Z,2.25
2022-08-23T12:52:24.483Z,2.30
2022-08-23T12:55:16.869Z,2.50
2022-08-23T12:58:08.963Z,2.23
2022-08-23T13:01:01.346Z,2.30
2022-08-23T13:03:55.697Z,2.13
2022-08-23T13:06:52.586Z,3.63
2022-08-23T13:09:45.438Z,4.93
2022-08-23T13:12:44.844Z,2.85
2022-08-23T13:15:47.525Z,3.88
2022-08-23T13:18:42.450Z,2.42
2022-08-23T13:21:40.082Z,2.08
2022-08-23T13:24:39.030Z,2.25
2022-08-23T13:27:36.550Z,1.92
2022-08-23T13:30:31.883Z,2.70
2022-08-23T13:33:24.191Z,2.80
2022-08-23T13:36:17.382Z,2.92
2022-08-23T13:39:08.594Z,2.58
2022-08-23T13:42:01.355Z,2.33
2022-08-23T13:44:52.866Z,2.20
2022-08-23T13:47:47.460Z,2.35
2022-08-23T13:50:39.499Z,2.17
2022-08-23T13:53:31.053Z,2.40
2022-08-23T13:56:29.180Z,2.15
2022-08-23T13:59:25.293Z,2.35
2022-08-23T14:02:22.773Z,2.20
2022-08-23T14:05:14.011Z,1.90
2022-08-23T14:08:05.356Z,2.10
2022-08-23T14:10:56.739Z,2.20
2022-08-23T14:13:50.475Z,2.88
2022-08-23T14:16:43.429Z,2.63
2022-08-23T14:22:46.133Z,2.17
2022-08-23T14:25:37.780Z,2.42
2022-08-23T14:28:31.367Z,2.17
2022-08-23T14:31:22.532Z,2.22
2022-08-23T14:34:15.020Z,2.00
2022-08-23T14:38:02.438Z,1.70
2022-08-23T14:40:17.794Z,1.90
2022-08-23T14:43:10.817Z,2.13
2022-08-23T14:46:02.014Z,2.25
2022-08-23T14:48:53.117Z,2.22
2022-08-23T14:51:47.438Z,2.55
2022-08-23T14:54:38.717Z,2.80
2022-08-23T14:57:30.080Z,2.72
2022-08-23T15:00:21.543Z,3.38
2022-08-23T15:03:14.239Z,4.30
2022-08-23T15:06:05.510Z,2.80
2022-08-23T15:08:58.214Z,2.65
2022-08-23T15:15:01.127Z,2.30
2022-08-23T15:17:53.760Z,3.20
2022-08-23T15:20:45.488Z,3.22
2022-08-23T15:23:36.898Z,2.90
2022-08-23T15:26:31.248Z,3.13
2022-08-23T15:29:22.858Z,3.10
2022-08-23T15:32:14.112Z,2.92
2022-08-23T15:35:13.394Z,2.97
2022-08-23T15:38:05.025Z,2.53
2022-08-23T15:40:56.990Z,3.20
2022-08-23T15:43:50.426Z,2.50
2022-08-23T15:46:41.670Z,2.58
2022-08-23T15:49:36.193Z,7.10
2022-08-23T15:52:28.267Z,3.10
2022-08-23T15:55:20.059Z,4.93
2022-08-23T15:58:14.479Z,2.53
2022-08-23T16:01:07.846Z,2.40
2022-08-23T16:04:02.045Z,2.50
2022-08-23T16:06:53.613Z,12.53
2022-08-23T16:09:45.047Z,3.90
2022-08-23T16:12:36.393Z,4.83
2022-08-23T16:15:27.891Z,5.00
2022-08-23T16:18:20.990Z,3.20
2022-08-23T16:21:13.037Z,2.80
2022-08-23T16:24:04.423Z,2.80
2022-08-23T16:26:56.326Z,3.00
2022-08-23T16:29:47.794Z,2.37
2022-08-23T16:32:39.258Z,2.73
2022-08-23T16:35:31.707Z,3.00
2022-08-23T16:38:22.956Z,3.17
2022-08-23T16:41:14.491Z,3.20
2022-08-23T16:44:06.510Z,2.90
2022-08-23T16:46:58.224Z,4.90
2022-08-23T16:49:49.588Z,5.20
2022-08-23T16:52:42.199Z,5.73
2022-08-23T16:55:33.386Z,2.83
2022-08-23T16:58:24.874Z,3.23
2022-08-23T17:01:19.928Z,3.70
2022-08-23T17:04:12.708Z,3.23
2022-08-23T17:07:03.921Z,3.20
2022-08-23T17:09:56.698Z,3.47
2022-08-23T17:12:49.189Z,3.30
2022-08-23T17:15:40.659Z,3.07
2022-08-23T17:18:32.182Z,2.90
2022-08-23T17:21:23.601Z,3.47
2022-08-23T17:24:15.221Z,2.70
2022-08-23T17:27:08.533Z,3.00
2022-08-23T17:30:05.587Z,3.07
2022-08-23T17:32:59.765Z,3.00
2022-08-23T17:35:51.203Z,3.17
2022-08-23T17:38:42.971Z,3.57
2022-08-23T17:41:35.426Z,3.80
2022-08-23T17:44:28.269Z,3.50
2022-08-23T17:47:19.737Z,3.90
2022-08-23T17:50:13.116Z,3.90
2022-08-23T17:53:04.529Z,3.70
2022-08-23T17:56:10.369Z,4.07
2022-08-23T17:59:04.270Z,3.73
2022-08-23T18:01:57.473Z,3.67
2022-08-23T18:04:50.080Z,3.50
2022-08-23T18:07:41.645Z,3.30
2022-08-23T18:10:33.104Z,3.63
2022-08-23T18:13:25.601Z,3.60
2022-08-23T18:16:17.320Z,3.80
2022-08-23T18:19:11.289Z,4.00
2022-08-23T18:22:05.117Z,3.63
2022-08-23T18:24:56.549Z,3.70
2022-08-23T18:28:05.944Z,4.63
2022-08-23T18:30:57.734Z,4.30
2022-08-23T18:33:49.532Z,4.40
2022-08-23T18:36:44.041Z,4.23
2022-08-23T18:39:35.608Z,4.70
2022-08-23T18:42:26.829Z,4.40
2022-08-23T18:45:18.346Z,4.57
2022-08-23T18:48:12.305Z,4.57
2022-08-23T18:51:04.296Z,4.40
2022-08-23T18:53:57.542Z,4.30
2022-08-23T18:56:49.091Z,4.43
2022-08-23T18:59:40.608Z,5.03
2022-08-23T19:02:34.183Z,4.00
2022-08-23T19:05:25.762Z,4.10
2022-08-23T19:08:19.534Z,4.20
2022-08-23T19:11:12.388Z,3.70
2022-08-23T19:14:03.601Z,4.43
2022-08-23T19:16:56.183Z,4.17
2022-08-23T19:19:47.724Z,4.60
2022-08-23T19:22:39.339Z,4.07
2022-08-23T19:25:31.630Z,4.00
2022-08-23T19:28:24.683Z,3.80
2022-08-23T19:31:16.073Z,4.20
2022-08-23T19:34:07.317Z,4.37
2022-08-23T19:37:01.039Z,4.67
2022-08-23T19:39:52.815Z,4.27
2022-08-23T19:42:44.085Z,4.63
2022-08-23T19:45:39.414Z,4.60
2022-08-23T19:48:30.578Z,4.17
2022-08-23T19:51:22.390Z,5.03
2022-08-23T19:54:13.723Z,4.70
2022-08-23T19:57:05.943Z,4.63
2022-08-23T19:59:58.770Z,4.87
2022-08-23T20:02:51.266Z,5.10
2022-08-23T20:05:42.499Z,5.40
2022-08-23T20:08:42.754Z,4.97
2022-08-23T20:11:34.466Z,5.47
2022-08-23T20:14:27.144Z,4.23
2022-08-23T20:17:18.711Z,4.60
2022-08-23T20:20:13.809Z,5.37
2022-08-23T20:23:22.540Z,4.10
2022-08-23T20:26:13.826Z,5.07
2022-08-23T20:29:06.169Z,4.43
2022-08-23T20:31:59.722Z,5.20
2022-08-23T20:34:51.156Z,5.47
2022-08-23T20:37:43.916Z,4.77
2022-08-23T20:40:34.840Z,4.83
2022-08-23T20:43:26.219Z,4.83
2022-08-23T20:46:18.010Z,4.40
2022-08-23T20:49:10.078Z,4.20
2022-08-23T20:52:01.398Z,4.73
2022-08-23T20:54:54.140Z,3.97
2022-08-23T20:57:46.416Z,4.30
2022-08-23T21:00:37.681Z,4.37
2022-08-23T21:03:29.958Z,4.37
2022-08-23T21:06:22.057Z,4.77
2022-08-23T21:09:16.951Z,5.57
2022-08-23T21:12:09.652Z,4.13
2022-08-23T21:15:00.838Z,4.53
2022-08-23T21:17:51.980Z,4.03
2022-08-23T21:20:43.196Z,4.93
2022-08-23T21:23:34.503Z,4.50
2022-08-23T21:26:26.039Z,4.47
2022-08-23T21:29:18.875Z,4.53
2022-08-23T21:32:10.258Z,4.40
2022-08-23T21:35:02.157Z,3.90
2022-08-23T21:37:53.719Z,4.43
2022-08-23T21:40:44.835Z,3.83
2022-08-23T21:43:37.294Z,4.30
2022-08-23T21:46:29.925Z,4.10
2022-08-23T21:49:23.215Z,4.03
2022-08-23T21:52:14.422Z,3.93
2022-08-23T21:55:09.245Z,4.73
2022-08-23T21:58:00.498Z,4.37
2022-08-23T22:00:51.754Z,4.60
2022-08-23T22:03:44.376Z,4.20
2022-08-23T22:06:36.450Z,4.27
2022-08-23T22:09:31.510Z,4.10
2022-08-23T22:12:24.966Z,4.20
2022-08-23T22:15:17.533Z,4.27
2022-08-23T22:18:09.251Z,4.20
2022-08-23T22:21:02.904Z,4.73
2022-08-23T22:23:54.296Z,4.17
2022-08-23T22:26:46.005Z,4.73
2022-08-23T22:29:37.739Z,4.10
2022-08-23T22:32:29.257Z,4.37
2022-08-23T22:35:20.415Z,3.97
2022-08-23T22:38:14.388Z,4.27
2022-08-23T22:41:06.578Z,4.10
2022-08-23T22:43:58.956Z,4.53
2022-08-23T22:46:50.215Z,4.40
2022-08-23T22:49:41.437Z,4.20
2022-08-23T22:52:32.613Z,4.37
2022-08-23T22:55:25.689Z,4.00
2022-08-23T22:58:19.462Z,4.23
2022-08-23T23:01:13.400Z,4.90
2022-08-23T23:04:06.848Z,4.33
2022-08-23T23:06:59.845Z,4.57
2022-08-23T23:09:50.978Z,4.63
2022-08-23T23:12:43.463Z,4.30
2022-08-23T23:15:34.587Z,3.93
2022-08-23T23:18:27.143Z,4.37
2022-08-23T23:21:17.538Z,4.87
2022-08-23T23:24:09.387Z,4.10
2022-08-23T23:27:01.705Z,3.90
2022-08-23T23:29:54.533Z,3.90
2022-08-23T23:32:45.767Z,4.20
2022-08-23T23:35:37.639Z,4.37
2022-08-23T23:38:28.807Z,3.97
2022-08-23T23:41:20.481Z,4.57
2022-08-23T23:44:11.933Z,4.60
2022-08-23T23:47:04.540Z,4.03
2022-08-23T23:49:55.388Z,4.40
2022-08-23T23:52:46.638Z,4.43
2022-08-23T23:55:38.147Z,4.43
2022-08-23T23:58:29.468Z,4.50
